createdAt,value
2018-03-23T00:00:00.173Z,1005.38
2018-03-23T00:01:00.178Z,1005.36
2018-03-23T00:02:00.181Z,1005.30
2018-03-23T00:03:00.179Z,1005.29
2018-03-23T00:04:01.181Z,1005.28
2018-03-23T00:05:00.181Z,1005.27
2018-03-23T00:06:00.185Z,1005.35
2018-03-23T00:07:00.193Z,1005.34
2018-03-23T00:08:00.199Z,1005.33
2018-03-23T00:09:00.197Z,1005.33
2018-03-23T00:10:00.201Z,1005.31
2018-03-23T00:11:00.199Z,1005.29
2018-03-23T00:12:01.224Z,1005.27
2018-03-23T00:13:00.218Z,1005.29
2018-03-23T00:14:00.213Z,1005.29
2018-03-23T00:15:00.207Z,1005.30
2018-03-23T00:16:00.217Z,1005.31
2018-03-23T00:17:00.209Z,1005.25
2018-03-23T00:18:00.222Z,1005.24
2018-03-23T00:19:00.237Z,1005.31
2018-03-23T00:20:00.229Z,1005.28
2018-03-23T00:21:00.233Z,1005.26
2018-03-23T00:22:00.238Z,1005.29
2018-03-23T00:23:00.252Z,1005.24
2018-03-23T00:24:00.233Z,1005.29
2018-03-23T00:25:00.238Z,1005.27
2018-03-23T00:26:00.236Z,1005.27
2018-03-23T00:27:00.241Z,1005.27
2018-03-23T00:28:00.252Z,1005.26
2018-03-23T00:29:01.255Z,1005.20
2018-03-23T00:30:00.253Z,1005.22
2018-03-23T00:31:00.266Z,1005.22
2018-03-23T00:32:00.253Z,1005.24
2018-03-23T00:33:00.260Z,1005.19
2018-03-23T00:34:00.260Z,1005.17
2018-03-23T00:35:00.272Z,1005.20
2018-03-23T00:36:00.265Z,1005.18
2018-03-23T00:37:00.284Z,1005.20
2018-03-23T00:38:00.267Z,1005.18
2018-03-23T00:39:00.278Z,1005.12
2018-03-23T00:40:00.280Z,1005.13
2018-03-23T00:41:00.293Z,1005.15
2018-03-23T00:42:00.285Z,1005.09
2018-03-23T00:43:00.299Z,1005.09
2018-03-23T00:44:00.290Z,1005.11
2018-03-23T00:45:00.302Z,1005.12
2018-03-23T00:46:00.299Z,1005.13
2018-03-23T00:47:00.308Z,1005.11
2018-03-23T00:48:00.312Z,1005.09
2018-03-23T00:49:00.310Z,1005.10
2018-03-23T00:50:00.310Z,1005.13
2018-03-23T00:51:00.323Z,1005.14
2018-03-23T00:52:00.308Z,1005.07
2018-03-23T00:53:02.330Z,1005.11
2018-03-23T00:54:00.316Z,1005.14
2018-03-23T00:55:01.332Z,1005.10
2018-03-23T00:56:00.329Z,1005.08
2018-03-23T00:57:00.327Z,1005.10
2018-03-23T00:58:00.330Z,1005.04
2018-03-23T00:59:00.335Z,1005.08
2018-03-23T01:00:00.330Z,1005.05
2018-03-23T01:01:00.337Z,1005.05
2018-03-23T01:02:00.356Z,1005.00
2018-03-23T01:03:00.350Z,1005.03
2018-03-23T01:04:00.349Z,1004.99
2018-03-23T01:05:00.355Z,1005.01
2018-03-23T01:06:00.361Z,1005.00
2018-03-23T01:07:00.377Z,1004.98
2018-03-23T01:08:00.360Z,1004.92
2018-03-23T01:09:00.378Z,1004.96
2018-03-23T01:10:00.363Z,1004.90
2018-03-23T01:11:00.381Z,1004.93
2018-03-23T01:12:00.362Z,1004.93
2018-03-23T01:13:00.376Z,1004.94
2018-03-23T01:14:00.368Z,1004.89
2018-03-23T01:15:00.378Z,1004.89
2018-03-23T01:16:00.379Z,1004.90
2018-03-23T01:17:00.389Z,1004.88
2018-03-23T01:18:00.386Z,1004.85
2018-03-23T01:19:00.385Z,1004.84
2018-03-23T01:20:00.389Z,1004.86
2018-03-23T01:21:00.392Z,1004.84
2018-03-23T01:22:00.398Z,1004.86
2018-03-23T01:23:00.405Z,1004.78
2018-03-23T01:24:00.396Z,1004.82
2018-03-23T01:25:00.404Z,1004.81
2018-03-23T01:26:00.405Z,1004.79
2018-03-23T01:27:00.408Z,1004.85
2018-03-23T01:28:00.409Z,1004.82
2018-03-23T01:29:00.418Z,1004.78
2018-03-23T01:30:00.423Z,1004.79
2018-03-23T01:31:00.425Z,1004.80
2018-03-23T01:32:00.431Z,1004.78
2018-03-23T01:33:00.432Z,1004.76
2018-03-23T01:34:00.440Z,1004.70
2018-03-23T01:35:00.435Z,1004.72
2018-03-23T01:36:00.431Z,1004.67
2018-03-23T01:37:00.457Z,1004.71
2018-03-23T01:38:00.438Z,1004.69
2018-03-23T01:39:00.463Z,1004.67
2018-03-23T01:40:00.440Z,1004.73
2018-03-23T01:41:01.508Z,1004.70
2018-03-23T01:42:00.453Z,1004.66
2018-03-23T01:43:00.456Z,1004.74
2018-03-23T01:44:00.447Z,1004.70
2018-03-23T01:45:00.464Z,1004.69
2018-03-23T01:46:00.459Z,1004.67
2018-03-23T01:47:01.470Z,1004.67
2018-03-23T01:48:00.471Z,1004.61
2018-03-23T01:49:01.473Z,1004.67
2018-03-23T01:50:00.469Z,1004.62
2018-03-23T01:51:00.486Z,1004.67
2018-03-23T01:52:00.473Z,1004.59
2018-03-23T01:53:00.481Z,1004.63
2018-03-23T01:54:00.512Z,1004.59
2018-03-23T01:55:01.503Z,1004.58
2018-03-23T01:56:00.491Z,1004.61
2018-03-23T01:57:01.514Z,1004.63
2018-03-23T01:58:00.493Z,1004.65
2018-03-23T01:59:00.498Z,1004.62
2018-03-23T02:00:00.497Z,1004.64
2018-03-23T02:01:00.512Z,1004.56
2018-03-23T02:02:00.509Z,1004.60
2018-03-23T02:03:00.523Z,1004.59
2018-03-23T02:04:00.523Z,1004.54
2018-03-23T02:05:01.513Z,1004.57
2018-03-23T02:06:00.516Z,1004.50
2018-03-23T02:07:00.528Z,1004.54
2018-03-23T02:08:00.516Z,1004.47
2018-03-23T02:09:00.527Z,1004.47
2018-03-23T02:10:00.524Z,1004.40
2018-03-23T02:11:00.543Z,1004.46
2018-03-23T02:12:00.531Z,1004.42
2018-03-23T02:13:00.538Z,1004.41
2018-03-23T02:14:00.546Z,1004.41
2018-03-23T02:15:00.538Z,1004.40
2018-03-23T02:16:00.555Z,1004.36
2018-03-23T02:17:00.549Z,1004.35
2018-03-23T02:18:00.568Z,1004.33
2018-03-23T02:19:00.551Z,1004.33
2018-03-23T02:20:00.550Z,1004.37
2018-03-23T02:21:00.562Z,1004.31
2018-03-23T02:22:00.561Z,1004.31
2018-03-23T02:23:01.577Z,1004.30
2018-03-23T02:24:00.568Z,1004.29
2018-03-23T02:25:00.570Z,1004.32
2018-03-23T02:26:00.571Z,1004.31
2018-03-23T02:27:00.575Z,1004.30
2018-03-23T02:28:00.573Z,1004.27
2018-03-23T02:29:00.582Z,1004.27
2018-03-23T02:30:00.592Z,1004.28
2018-03-23T02:31:00.595Z,1004.23
2018-03-23T02:32:00.579Z,1004.22
2018-03-23T02:33:00.588Z,1004.21
2018-03-23T02:34:00.590Z,1004.27
2018-03-23T02:35:00.598Z,1004.24
2018-03-23T02:36:00.599Z,1004.22
2018-03-23T02:37:00.600Z,1004.21
2018-03-23T02:38:00.601Z,1004.23
2018-03-23T02:39:00.605Z,1004.24
2018-03-23T02:40:00.607Z,1004.14
2018-03-23T02:41:00.613Z,1004.16
2018-03-23T02:42:00.619Z,1004.10
2018-03-23T02:43:01.622Z,1004.08
2018-03-23T02:44:00.623Z,1004.14
2018-03-23T02:45:00.629Z,1004.07
2018-03-23T02:46:00.622Z,1004.08
2018-03-23T02:47:00.630Z,1004.02
2018-03-23T02:48:00.635Z,1004.02
2018-03-23T02:49:00.635Z,1004.04
2018-03-23T02:50:00.635Z,1004.02
2018-03-23T02:51:00.640Z,1004.00
2018-03-23T02:52:00.645Z,1004.04
2018-03-23T02:53:00.641Z,1003.97
2018-03-23T02:54:00.653Z,1003.98
2018-03-23T02:55:00.680Z,1003.93
2018-03-23T02:56:00.642Z,1003.97
2018-03-23T02:57:00.667Z,1003.92
2018-03-23T02:58:00.658Z,1003.91
2018-03-23T02:59:00.666Z,1003.94
2018-03-23T03:00:00.658Z,1003.91
2018-03-23T03:01:00.664Z,1003.95
2018-03-23T03:02:00.671Z,1003.94
2018-03-23T03:03:00.673Z,1003.89
2018-03-23T03:04:00.670Z,1003.95
2018-03-23T03:05:00.679Z,1003.92
2018-03-23T03:06:00.686Z,1003.92
2018-03-23T03:07:00.683Z,1003.85
2018-03-23T03:08:00.697Z,1003.85
2018-03-23T03:09:00.694Z,1003.88
2018-03-23T03:10:00.681Z,1003.88
2018-03-23T03:11:00.714Z,1003.87
2018-03-23T03:12:00.685Z,1003.86
2018-03-23T03:13:00.702Z,1003.88
2018-03-23T03:14:00.701Z,1003.86
2018-03-23T03:15:00.705Z,1003.91
2018-03-23T03:16:00.702Z,1003.89
2018-03-23T03:17:00.707Z,1003.90
2018-03-23T03:18:00.709Z,1003.83
2018-03-23T03:19:00.715Z,1003.83
2018-03-23T03:20:00.718Z,1003.82
2018-03-23T03:21:00.720Z,1003.85
2018-03-23T03:22:00.732Z,1003.81
2018-03-23T03:23:00.736Z,1003.75
2018-03-23T03:24:00.715Z,1003.81
2018-03-23T03:25:00.746Z,1003.79
2018-03-23T03:26:00.727Z,1003.80
2018-03-23T03:27:00.734Z,1003.76
2018-03-23T03:28:00.732Z,1003.79
2018-03-23T03:29:00.742Z,1003.72
2018-03-23T03:30:00.743Z,1003.78
2018-03-23T03:31:00.748Z,1003.77
2018-03-23T03:32:00.747Z,1003.69
2018-03-23T03:33:00.757Z,1003.71
2018-03-23T03:34:00.751Z,1003.67
2018-03-23T03:35:01.755Z,1003.65
2018-03-23T03:36:00.750Z,1003.62
2018-03-23T03:37:00.805Z,1003.64
2018-03-23T03:38:00.754Z,1003.62
2018-03-23T03:39:00.791Z,1003.62
2018-03-23T03:40:00.768Z,1003.59
2018-03-23T03:41:00.767Z,1003.61
2018-03-23T03:42:00.768Z,1003.56
2018-03-23T03:43:00.776Z,1003.58
2018-03-23T03:44:00.778Z,1003.60
2018-03-23T03:45:00.782Z,1003.54
2018-03-23T03:46:00.798Z,1003.56
2018-03-23T03:47:00.794Z,1003.51
2018-03-23T03:48:00.795Z,1003.56
2018-03-23T03:49:00.786Z,1003.53
2018-03-23T03:50:00.790Z,1003.56
2018-03-23T03:51:00.797Z,1003.55
2018-03-23T03:52:00.798Z,1003.55
2018-03-23T03:53:00.823Z,1003.54
2018-03-23T03:54:00.801Z,1003.50
2018-03-23T03:55:00.810Z,1003.50
2018-03-23T03:56:00.805Z,1003.51
2018-03-23T03:57:00.810Z,1003.53
2018-03-23T03:58:00.821Z,1003.51
2018-03-23T03:59:00.823Z,1003.52
2018-03-23T04:00:00.828Z,1003.51
2018-03-23T04:01:00.829Z,1003.46
2018-03-23T04:02:00.820Z,1003.52
2018-03-23T04:03:00.840Z,1003.46
2018-03-23T04:04:00.822Z,1003.47
2018-03-23T04:05:00.827Z,1003.53
2018-03-23T04:06:00.846Z,1003.45
2018-03-23T04:07:00.836Z,1003.45
2018-03-23T04:08:00.843Z,1003.50
2018-03-23T04:09:00.847Z,1003.47
2018-03-23T04:10:00.841Z,1003.41
2018-03-23T04:11:00.852Z,1003.46
2018-03-23T04:12:00.866Z,1003.42
2018-03-23T04:13:00.857Z,1003.39
2018-03-23T04:14:00.857Z,1003.37
2018-03-23T04:15:00.870Z,1003.38
2018-03-23T04:16:00.860Z,1003.41
2018-03-23T04:17:00.877Z,1003.37
2018-03-23T04:18:00.863Z,1003.31
2018-03-23T04:19:00.873Z,1003.31
2018-03-23T04:20:00.871Z,1003.33
2018-03-23T04:21:00.878Z,1003.40
2018-03-23T04:22:00.884Z,1003.36
2018-03-23T04:23:00.878Z,1003.34
2018-03-23T04:24:00.884Z,1003.35
2018-03-23T04:25:00.888Z,1003.32
2018-03-23T04:26:00.894Z,1003.29
2018-03-23T04:27:00.889Z,1003.34
2018-03-23T04:28:00.895Z,1003.33
2018-03-23T04:29:00.899Z,1003.33
2018-03-23T04:30:00.904Z,1003.29
2018-03-23T04:31:00.896Z,1003.33
2018-03-23T04:32:00.909Z,1003.27
2018-03-23T04:33:00.903Z,1003.30
2018-03-23T04:34:00.914Z,1003.31
2018-03-23T04:35:00.915Z,1003.25
2018-03-23T04:36:00.917Z,1003.28
2018-03-23T04:37:00.919Z,1003.29
2018-03-23T04:38:00.920Z,1003.22
2018-03-23T04:39:00.928Z,1003.24
2018-03-23T04:40:01.930Z,1003.27
2018-03-23T04:41:00.935Z,1003.23
2018-03-23T04:42:00.948Z,1003.20
2018-03-23T04:43:00.962Z,1003.24
2018-03-23T04:44:00.936Z,1003.20
2018-03-23T04:45:00.938Z,1003.15
2018-03-23T04:46:00.946Z,1003.15
2018-03-23T04:47:00.943Z,1003.20
2018-03-23T04:48:00.951Z,1003.09
2018-03-23T04:49:00.942Z,1003.14
2018-03-23T04:50:00.953Z,1003.07
2018-03-23T04:51:00.952Z,1003.07
2018-03-23T04:52:00.960Z,1003.08
2018-03-23T04:53:00.954Z,1003.12
2018-03-23T04:54:02.971Z,1003.07
2018-03-23T04:55:00.964Z,1003.02
2018-03-23T04:56:00.974Z,1003.07
2018-03-23T04:57:00.962Z,1003.00
2018-03-23T04:58:00.985Z,1002.96
2018-03-23T04:59:00.968Z,1002.97
2018-03-23T05:00:00.972Z,1002.92
2018-03-23T05:01:00.980Z,1002.95
2018-03-23T05:02:00.987Z,1003.00
2018-03-23T05:03:00.992Z,1002.93
2018-03-23T05:04:00.989Z,1002.92
2018-03-23T05:05:00.991Z,1002.92
2018-03-23T05:06:01.997Z,1002.95
2018-03-23T05:07:01.001Z,1002.87
2018-03-23T05:08:01.013Z,1002.86
2018-03-23T05:09:00.999Z,1002.91
2018-03-23T05:10:01.006Z,1002.82
2018-03-23T05:11:01.013Z,1002.82
2018-03-23T05:12:01.011Z,1002.81
2018-03-23T05:13:01.010Z,1002.81
2018-03-23T05:14:01.018Z,1002.79
2018-03-23T05:15:01.022Z,1002.82
2018-03-23T05:16:01.022Z,1002.86
2018-03-23T05:17:01.022Z,1002.83
2018-03-23T05:18:01.029Z,1002.77
2018-03-23T05:19:01.028Z,1002.81
2018-03-23T05:20:01.027Z,1002.81
2018-03-23T05:21:01.029Z,1002.82
2018-03-23T05:22:01.035Z,1002.81
2018-03-23T05:23:01.040Z,1002.74
2018-03-23T05:24:01.043Z,1002.81
2018-03-23T05:25:01.055Z,1002.78
2018-03-23T05:26:01.052Z,1002.78
2018-03-23T05:27:01.047Z,1002.80
2018-03-23T05:28:01.049Z,1002.71
2018-03-23T05:29:01.071Z,1002.71
2018-03-23T05:30:01.061Z,1002.76
2018-03-23T05:31:01.067Z,1002.69
2018-03-23T05:32:01.064Z,1002.77
2018-03-23T05:33:01.058Z,1002.68
2018-03-23T05:34:01.075Z,1002.68
2018-03-23T05:35:01.072Z,1002.72
2018-03-23T05:36:01.079Z,1002.69
2018-03-23T05:37:01.071Z,1002.74
2018-03-23T05:38:01.071Z,1002.72
2018-03-23T05:39:01.075Z,1002.72
2018-03-23T05:40:01.082Z,1002.67
2018-03-23T05:41:01.084Z,1002.69
2018-03-23T05:42:02.093Z,1002.77
2018-03-23T05:43:01.091Z,1002.75
2018-03-23T05:44:01.098Z,1002.73
2018-03-23T05:45:01.090Z,1002.65
2018-03-23T05:46:01.099Z,1002.66
2018-03-23T05:47:01.098Z,1002.69
2018-03-23T05:48:01.106Z,1002.73
2018-03-23T05:49:01.146Z,1002.65
2018-03-23T05:50:01.142Z,1002.66
2018-03-23T05:51:01.112Z,1002.67
2018-03-23T05:52:01.114Z,1002.66
2018-03-23T05:53:01.113Z,1002.68
2018-03-23T05:54:01.164Z,1002.65
2018-03-23T05:55:01.119Z,1002.65
2018-03-23T05:56:01.122Z,1002.63
2018-03-23T05:57:01.119Z,1002.59
2018-03-23T05:58:01.143Z,1002.62
2018-03-23T05:59:01.139Z,1002.62
2018-03-23T06:00:01.138Z,1002.59
2018-03-23T06:01:01.136Z,1002.57
2018-03-23T06:02:01.143Z,1002.61
2018-03-23T06:03:01.142Z,1002.64
2018-03-23T06:04:01.144Z,1002.63
2018-03-23T06:05:01.143Z,1002.59
2018-03-23T06:06:01.154Z,1002.66
2018-03-23T06:07:01.155Z,1002.57
2018-03-23T06:08:01.155Z,1002.59
2018-03-23T06:09:01.160Z,1002.61
2018-03-23T06:10:01.158Z,1002.57
2018-03-23T06:11:01.165Z,1002.55
2018-03-23T06:12:01.167Z,1002.53
2018-03-23T06:13:01.172Z,1002.58
2018-03-23T06:14:01.174Z,1002.53
2018-03-23T06:15:01.174Z,1002.52
2018-03-23T06:16:01.174Z,1002.48
2018-03-23T06:17:01.172Z,1002.50
2018-03-23T06:18:01.186Z,1002.50
2018-03-23T06:19:01.177Z,1002.47
2018-03-23T06:20:01.183Z,1002.50
2018-03-23T06:21:01.181Z,1002.50
2018-03-23T06:22:01.194Z,1002.52
2018-03-23T06:23:01.189Z,1002.49
2018-03-23T06:24:01.196Z,1002.49
2018-03-23T06:25:01.193Z,1002.42
2018-03-23T06:26:01.197Z,1002.48
2018-03-23T06:27:01.205Z,1002.54
2018-03-23T06:28:01.223Z,1002.49
2018-03-23T06:29:01.225Z,1002.50
2018-03-23T06:30:01.214Z,1002.48
2018-03-23T06:31:01.211Z,1002.52
2018-03-23T06:32:01.231Z,1002.51
2018-03-23T06:33:01.216Z,1002.48
2018-03-23T06:34:02.226Z,1002.48
2018-03-23T06:35:01.221Z,1002.46
2018-03-23T06:36:01.228Z,1002.46
2018-03-23T06:37:01.225Z,1002.46
2018-03-23T06:38:02.299Z,1002.49
2018-03-23T06:39:01.236Z,1002.46
2018-03-23T06:40:01.287Z,1002.47
2018-03-23T06:41:01.238Z,1002.41
2018-03-23T06:42:01.299Z,1002.40
2018-03-23T06:43:01.239Z,1002.42
2018-03-23T06:44:01.317Z,1002.44
2018-03-23T06:45:01.247Z,1002.43
2018-03-23T06:46:01.281Z,1002.45
2018-03-23T06:47:01.281Z,1002.37
2018-03-23T06:48:02.324Z,1002.36
2018-03-23T06:49:01.256Z,1002.42
2018-03-23T06:50:01.265Z,1002.44
2018-03-23T06:51:01.259Z,1002.44
2018-03-23T06:52:01.282Z,1002.40
2018-03-23T06:53:01.267Z,1002.41
2018-03-23T06:54:01.271Z,1002.46
2018-03-23T06:55:01.265Z,1002.45
2018-03-23T06:56:01.273Z,1002.42
2018-03-23T06:57:01.273Z,1002.45
2018-03-23T06:58:01.284Z,1002.42
2018-03-23T06:59:01.285Z,1002.41
2018-03-23T07:00:01.294Z,1002.41
2018-03-23T07:01:01.283Z,1002.40
2018-03-23T07:02:01.316Z,1002.40
2018-03-23T07:03:01.289Z,1002.46
2018-03-23T07:04:01.298Z,1002.44
2018-03-23T07:05:01.302Z,1002.41
2018-03-23T07:06:01.314Z,1002.40
2018-03-23T07:07:01.301Z,1002.43
2018-03-23T07:08:01.353Z,1002.46
2018-03-23T07:09:01.306Z,1002.45
2018-03-23T07:10:02.318Z,1002.46
2018-03-23T07:11:01.364Z,1002.39
2018-03-23T07:12:01.315Z,1002.43
2018-03-23T07:13:01.313Z,1002.45
2018-03-23T07:14:01.384Z,1002.43
2018-03-23T07:15:01.341Z,1002.47
2018-03-23T07:16:01.379Z,1002.46
2018-03-23T07:17:01.324Z,1002.43
2018-03-23T07:18:01.326Z,1002.47
2018-03-23T07:19:01.337Z,1002.44
2018-03-23T07:20:01.333Z,1002.42
2018-03-23T07:21:01.412Z,1002.45
2018-03-23T07:22:01.346Z,1002.44
2018-03-23T07:23:01.424Z,1002.49
2018-03-23T07:24:01.360Z,1002.42
2018-03-23T07:25:01.442Z,1002.43
2018-03-23T07:26:01.354Z,1002.44
2018-03-23T07:27:01.454Z,1002.42
2018-03-23T07:28:01.357Z,1002.38
2018-03-23T07:29:01.465Z,1002.37
2018-03-23T07:30:01.363Z,1002.38
2018-03-23T07:31:01.385Z,1002.43
2018-03-23T07:32:01.367Z,1002.41
2018-03-23T07:33:01.394Z,1002.39
2018-03-23T07:34:01.368Z,1002.39
2018-03-23T07:35:01.406Z,1002.36
2018-03-23T07:36:01.376Z,1002.37
2018-03-23T07:37:01.419Z,1002.33
2018-03-23T07:38:01.382Z,1002.38
2018-03-23T07:39:01.446Z,1002.45
2018-03-23T07:40:01.388Z,1002.35
2018-03-23T07:41:01.459Z,1002.38
2018-03-23T07:42:01.404Z,1002.36
2018-03-23T07:43:01.483Z,1002.38
2018-03-23T07:44:01.395Z,1002.34
2018-03-23T07:45:01.517Z,1002.37
2018-03-23T07:46:01.407Z,1002.36
2018-03-23T07:47:01.457Z,1002.35
2018-03-23T07:48:01.404Z,1002.33
2018-03-23T07:49:01.471Z,1002.37
2018-03-23T07:50:01.461Z,1002.33
2018-03-23T07:51:01.485Z,1002.28
2018-03-23T07:52:01.417Z,1002.33
2018-03-23T07:53:01.499Z,1002.33
2018-03-23T07:54:01.426Z,1002.32
2018-03-23T07:55:01.509Z,1002.33
2018-03-23T07:56:01.432Z,1002.35
2018-03-23T07:57:01.528Z,1002.29
2018-03-23T07:58:01.430Z,1002.28
2018-03-23T07:59:01.596Z,1002.35
2018-03-23T08:00:01.440Z,1002.35
2018-03-23T08:01:01.441Z,1002.30
2018-03-23T08:02:01.444Z,1002.25
2018-03-23T08:03:01.453Z,1002.28
2018-03-23T08:04:01.447Z,1002.27
2018-03-23T08:05:01.471Z,1002.27
2018-03-23T08:06:01.453Z,1002.24
2018-03-23T08:07:01.459Z,1002.26
2018-03-23T08:08:01.464Z,1002.20
2018-03-23T08:09:01.467Z,1002.19
2018-03-23T08:10:01.462Z,1002.18
2018-03-23T08:11:01.477Z,1002.19
2018-03-23T08:12:01.472Z,1002.16
2018-03-23T08:13:01.473Z,1002.14
2018-03-23T08:14:01.472Z,1002.17
2018-03-23T08:15:01.483Z,1002.16
2018-03-23T08:16:01.489Z,1002.15
2018-03-23T08:17:02.492Z,1002.18
2018-03-23T08:18:01.480Z,1002.15
2018-03-23T08:19:01.494Z,1002.16
2018-03-23T08:20:01.492Z,1002.24
2018-03-23T08:21:01.501Z,1002.18
2018-03-23T08:22:01.497Z,1002.16
2018-03-23T08:23:01.509Z,1002.20
2018-03-23T08:24:01.492Z,1002.21
2018-03-23T08:25:01.508Z,1002.20
2018-03-23T08:26:01.505Z,1002.22
2018-03-23T08:27:01.508Z,1002.22
2018-03-23T08:28:01.516Z,1002.24
2018-03-23T08:29:01.514Z,1002.21
2018-03-23T08:30:01.575Z,1002.18
2018-03-23T08:31:01.521Z,1002.20
2018-03-23T08:32:01.594Z,1002.15
2018-03-23T08:33:01.526Z,1002.11
2018-03-23T08:34:02.639Z,1002.12
2018-03-23T08:35:01.534Z,1002.11
2018-03-23T08:36:01.933Z,1002.07
2018-03-23T08:37:01.527Z,1002.09
2018-03-23T08:38:01.635Z,1002.09
2018-03-23T08:39:01.543Z,1002.11
2018-03-23T08:40:02.567Z,1002.01
2018-03-23T08:41:01.558Z,1002.05
2018-03-23T08:42:01.661Z,1002.08
2018-03-23T08:43:01.542Z,1002.04
2018-03-23T08:44:01.620Z,1002.07
2018-03-23T08:45:01.577Z,1002.05
2018-03-23T08:46:01.586Z,1002.06
2018-03-23T08:47:01.562Z,1002.05
2018-03-23T08:48:01.632Z,1002.01
2018-03-23T08:49:01.560Z,1001.97
2018-03-23T08:50:01.612Z,1001.96
2018-03-23T08:51:01.564Z,1002.02
2018-03-23T08:52:01.623Z,1001.95
2018-03-23T08:53:01.576Z,1002.00
2018-03-23T08:54:01.644Z,1002.03
2018-03-23T08:55:01.574Z,1001.98
2018-03-23T08:56:01.650Z,1001.97
2018-03-23T08:57:01.588Z,1002.01
2018-03-23T08:58:01.666Z,1002.00
2018-03-23T08:59:01.604Z,1002.04
2018-03-23T09:00:01.676Z,1002.02
2018-03-23T09:01:01.593Z,1002.00
2018-03-23T09:02:01.728Z,1001.99
2018-03-23T09:03:01.595Z,1001.98
2018-03-23T09:04:01.702Z,1001.96
2018-03-23T09:05:01.606Z,1001.97
2018-03-23T09:06:01.714Z,1001.96
2018-03-23T09:07:01.617Z,1001.98
2018-03-23T09:08:01.646Z,1001.91
2018-03-23T09:09:01.611Z,1001.90
2018-03-23T09:10:01.640Z,1001.87
2018-03-23T09:11:01.629Z,1001.95
2018-03-23T09:12:01.656Z,1001.93
2018-03-23T09:13:01.627Z,1001.86
2018-03-23T09:14:01.665Z,1001.92
2018-03-23T09:15:01.632Z,1001.84
2018-03-23T09:16:01.679Z,1001.93
2018-03-23T09:17:01.637Z,1001.90
2018-03-23T09:18:01.693Z,1001.89
2018-03-23T09:19:01.644Z,1001.88
2018-03-23T09:20:01.719Z,1001.86
2018-03-23T09:21:01.642Z,1001.85
2018-03-23T09:22:01.726Z,1001.84
2018-03-23T09:23:01.651Z,1001.81
2018-03-23T09:24:01.735Z,1001.82
2018-03-23T09:25:01.663Z,1001.79
2018-03-23T09:26:01.746Z,1001.80
2018-03-23T09:27:01.664Z,1001.77
2018-03-23T09:28:02.684Z,1001.77
2018-03-23T09:29:01.664Z,1001.75
2018-03-23T09:30:01.789Z,1001.79
2018-03-23T09:31:01.674Z,1001.76
2018-03-23T09:32:01.690Z,1001.78
2018-03-23T09:33:01.687Z,1001.75
2018-03-23T09:34:01.711Z,1001.74
2018-03-23T09:35:01.740Z,1001.74
2018-03-23T09:36:01.718Z,1001.75
2018-03-23T09:37:01.700Z,1001.78
2018-03-23T09:38:01.730Z,1001.69
2018-03-23T09:39:01.703Z,1001.70
2018-03-23T09:40:01.744Z,1001.72
2018-03-23T09:41:01.702Z,1001.66
2018-03-23T09:42:01.756Z,1001.75
2018-03-23T09:43:01.703Z,1001.70
2018-03-23T09:44:01.770Z,1001.63
2018-03-23T09:45:01.714Z,1001.63
2018-03-23T09:46:01.786Z,1001.62
2018-03-23T09:47:01.715Z,1001.65
2018-03-23T09:48:01.827Z,1001.69
2018-03-23T09:49:01.723Z,1001.63
2018-03-23T09:50:01.822Z,1001.64
2018-03-23T09:51:01.739Z,1001.67
2018-03-23T09:52:01.867Z,1001.59
2018-03-23T09:53:01.757Z,1001.63
2018-03-23T09:54:01.846Z,1001.61
2018-03-23T09:55:01.742Z,1001.58
2018-03-23T09:56:01.857Z,1001.61
2018-03-23T09:57:01.765Z,1001.59
2018-03-23T09:58:01.768Z,1001.54
2018-03-23T09:59:01.746Z,1001.52
2018-03-23T10:00:01.780Z,1001.51
2018-03-23T10:01:01.770Z,1001.46
2018-03-23T10:02:01.794Z,1001.52
2018-03-23T10:03:01.799Z,1001.47
2018-03-23T10:04:01.920Z,1001.44
2018-03-23T10:05:01.788Z,1001.48
2018-03-23T10:06:02.852Z,1001.48
2018-03-23T10:07:01.795Z,1001.51
2018-03-23T10:08:02.856Z,1001.54
2018-03-23T10:09:01.779Z,1001.55
2018-03-23T10:10:01.849Z,1001.48
2018-03-23T10:11:01.787Z,1001.48
2018-03-23T10:12:01.860Z,1001.53
2018-03-23T10:13:01.786Z,1001.51
2018-03-23T10:14:01.892Z,1001.45
2018-03-23T10:15:01.814Z,1001.39
2018-03-23T10:16:01.885Z,1001.41
2018-03-23T10:17:01.797Z,1001.37
2018-03-23T10:18:01.803Z,1001.34
2018-03-23T10:19:01.802Z,1001.31
2018-03-23T10:20:01.813Z,1001.33
2018-03-23T10:21:01.869Z,1001.31
2018-03-23T10:22:02.816Z,1001.31
2018-03-23T10:23:01.818Z,1001.28
2018-03-23T10:24:01.820Z,1001.25
2018-03-23T10:25:01.828Z,1001.26
2018-03-23T10:26:01.832Z,1001.24
2018-03-23T10:27:01.826Z,1001.27
2018-03-23T10:28:01.856Z,1001.26
2018-03-23T10:29:01.883Z,1001.22
2018-03-23T10:30:01.841Z,1001.28
2018-03-23T10:31:01.842Z,1001.24
2018-03-23T10:32:01.842Z,1001.22
2018-03-23T10:33:01.843Z,1001.17
2018-03-23T10:34:01.861Z,1001.15
2018-03-23T10:35:02.155Z,1001.17
2018-03-23T10:36:01.859Z,1001.14
2018-03-23T10:37:01.860Z,1001.14
2018-03-23T10:38:01.858Z,1001.11
2018-03-23T10:39:01.941Z,1001.11
2018-03-23T10:40:01.879Z,1001.12
2018-03-23T10:41:01.877Z,1001.11
2018-03-23T10:42:01.870Z,1001.11
2018-03-23T10:43:01.893Z,1001.13
2018-03-23T10:44:01.879Z,1001.14
2018-03-23T10:45:01.881Z,1001.09
2018-03-23T10:46:01.887Z,1001.09
2018-03-23T10:47:01.886Z,1001.08
2018-03-23T10:48:01.889Z,1001.11
2018-03-23T10:49:01.891Z,1001.04
2018-03-23T10:50:02.221Z,1001.05
2018-03-23T10:51:01.901Z,1001.04
2018-03-23T10:52:01.930Z,1001.03
2018-03-23T10:53:01.913Z,1000.97
2018-03-23T10:54:01.946Z,1000.99
2018-03-23T10:55:01.905Z,1000.93
2018-03-23T10:56:01.926Z,1000.95
2018-03-23T10:57:01.920Z,1000.98
2018-03-23T10:58:01.925Z,1000.97
2018-03-23T10:59:01.929Z,1000.92
2018-03-23T11:00:01.962Z,1000.92
2018-03-23T11:01:01.928Z,1000.89
2018-03-23T11:02:01.958Z,1000.86
2018-03-23T11:03:01.944Z,1000.86
2018-03-23T11:04:02.952Z,1000.84
2018-03-23T11:05:01.949Z,1000.92
2018-03-23T11:06:01.948Z,1000.83
2018-03-23T11:07:01.958Z,1000.89
2018-03-23T11:08:01.967Z,1000.84
2018-03-23T11:09:01.953Z,1000.79
2018-03-23T11:10:01.990Z,1000.82
2018-03-23T11:11:01.962Z,1000.84
2018-03-23T11:12:01.965Z,1000.79
2018-03-23T11:13:01.972Z,1000.78
2018-03-23T11:14:01.976Z,1000.77
2018-03-23T11:15:01.972Z,1000.81
2018-03-23T11:16:01.975Z,1000.79
2018-03-23T11:17:01.990Z,1000.77
2018-03-23T11:18:01.984Z,1000.77
2018-03-23T11:19:01.983Z,1000.76
2018-03-23T11:20:04.014Z,1000.81
2018-03-23T11:21:01.987Z,1000.73
2018-03-23T11:22:02.004Z,1000.68
2018-03-23T11:23:02.019Z,1000.67
2018-03-23T11:24:02.003Z,1000.68
2018-03-23T11:25:02.057Z,1000.65
2018-03-23T11:26:02.045Z,1000.62
2018-03-23T11:27:02.062Z,1000.66
2018-03-23T11:28:02.050Z,1000.63
2018-03-23T11:29:02.077Z,1000.66
2018-03-23T11:30:02.014Z,1000.65
2018-03-23T11:31:02.034Z,1000.64
2018-03-23T11:32:02.019Z,1000.72
2018-03-23T11:33:02.100Z,1000.67
2018-03-23T11:34:02.027Z,1000.64
2018-03-23T11:35:02.115Z,1000.60
2018-03-23T11:36:02.034Z,1000.61
2018-03-23T11:37:02.164Z,1000.58
2018-03-23T11:38:02.087Z,1000.56
2018-03-23T11:39:02.155Z,1000.49
2018-03-23T11:40:02.052Z,1000.49
2018-03-23T11:41:02.159Z,1000.52
2018-03-23T11:42:02.052Z,1000.45
2018-03-23T11:43:02.173Z,1000.47
2018-03-23T11:44:02.063Z,1000.45
2018-03-23T11:45:02.083Z,1000.54
2018-03-23T11:46:02.097Z,1000.47
2018-03-23T11:47:02.137Z,1000.42
2018-03-23T11:48:02.106Z,1000.40
2018-03-23T11:49:02.117Z,1000.39
2018-03-23T11:50:02.083Z,1000.38
2018-03-23T11:51:02.129Z,1000.33
2018-03-23T11:52:02.096Z,1000.35
2018-03-23T11:53:02.139Z,1000.34
2018-03-23T11:54:02.110Z,1000.28
2018-03-23T11:55:02.157Z,1000.29
2018-03-23T11:56:02.107Z,1000.33
2018-03-23T11:57:02.171Z,1000.32
2018-03-23T11:58:02.106Z,1000.31
2018-03-23T11:59:02.298Z,1000.32
2018-03-23T12:00:02.122Z,1000.31
2018-03-23T12:01:02.199Z,1000.28
2018-03-23T12:02:02.161Z,1000.30
2018-03-23T12:03:02.216Z,1000.31
2018-03-23T12:04:02.134Z,1000.32
2018-03-23T12:05:04.177Z,1000.29